createdAt,value
2022-08-07T00:02:39.679Z,1.87
2022-08-07T00:05:05.561Z,1.60
2022-08-07T00:07:40.450Z,1.40
2022-08-07T00:10:29.699Z,1.60
2022-08-07T00:13:01.270Z,1.50
2022-08-07T00:15:37.644Z,1.50
2022-08-07T00:18:18.877Z,1.47
2022-08-07T00:20:50.388Z,1.47
2022-08-07T00:23:21.409Z,1.70
2022-08-07T00:25:59.010Z,1.40
2022-08-07T00:28:31.511Z,2.13
2022-08-07T00:31:04.340Z,1.50
2022-08-07T00:33:34.881Z,1.80
2022-08-07T00:36:05.826Z,1.73
2022-08-07T00:38:36.607Z,1.70
2022-08-07T00:41:09.956Z,1.93
2022-08-07T00:44:00.471Z,1.70
2022-08-07T00:46:32.968Z,1.43
2022-08-07T00:49:03.002Z,1.70
2022-08-07T00:51:57.038Z,1.80
2022-08-07T00:54:22.325Z,1.53
2022-08-07T00:56:51.605Z,1.80
2022-08-07T00:59:35.678Z,1.90
2022-08-07T01:02:09.040Z,2.00
2022-08-07T01:04:49.054Z,1.90
2022-08-07T01:07:20.980Z,1.90
2022-08-07T01:10:06.991Z,1.70
2022-08-07T01:12:41.006Z,1.50
2022-08-07T01:15:35.702Z,1.70
2022-08-07T01:18:16.834Z,1.63
2022-08-07T01:20:59.203Z,1.70
2022-08-07T01:23:38.485Z,1.60
2022-08-07T01:26:07.846Z,1.70
2022-08-07T01:28:41.674Z,1.63
2022-08-07T01:31:17.768Z,1.73
2022-08-07T01:33:55.645Z,1.97
2022-08-07T01:36:33.284Z,1.80
2022-08-07T01:39:09.818Z,1.87
2022-08-07T01:41:40.766Z,2.00
2022-08-07T01:44:28.568Z,1.60
2022-08-07T01:46:57.240Z,1.80
2022-08-07T01:49:31.941Z,1.90
2022-08-07T01:52:04.758Z,2.00
2022-08-07T01:54:37.599Z,2.00
2022-08-07T01:57:08.687Z,1.90
2022-08-07T01:59:52.058Z,1.80
2022-08-07T02:02:32.866Z,1.50
2022-08-07T02:05:42.834Z,1.40
2022-08-07T02:08:08.151Z,1.63
2022-08-07T02:10:42.375Z,1.90
2022-08-07T02:13:12.211Z,1.70
2022-08-07T02:15:41.806Z,1.70
2022-08-07T02:18:12.538Z,1.83
2022-08-07T02:20:41.485Z,1.93
2022-08-07T02:23:20.067Z,1.70
2022-08-07T02:26:30.460Z,1.53
2022-08-07T02:28:43.783Z,1.83
2022-08-07T02:31:28.288Z,1.60
2022-08-07T02:34:03.223Z,1.80
2022-08-07T02:36:33.726Z,2.00
2022-08-07T02:39:15.950Z,2.20
2022-08-07T02:41:54.258Z,1.73
2022-08-07T02:44:27.725Z,1.77
2022-08-07T02:47:04.298Z,1.53
2022-08-07T02:49:56.196Z,1.80
2022-08-07T02:52:31.052Z,1.50
2022-08-07T02:55:02.712Z,1.60
2022-08-07T02:57:35.364Z,1.70
2022-08-07T03:00:05.014Z,1.80
2022-08-07T03:02:41.940Z,1.70
2022-08-07T03:05:24.645Z,2.00
2022-08-07T03:08:07.482Z,1.70
2022-08-07T03:10:46.358Z,1.60
2022-08-07T03:13:19.298Z,1.83
2022-08-07T03:15:56.660Z,1.80
2022-08-07T03:18:34.565Z,2.00
2022-08-07T03:21:08.511Z,1.70
2022-08-07T03:24:17.821Z,1.60
2022-08-07T03:26:30.313Z,1.70
2022-08-07T03:29:01.194Z,1.83
2022-08-07T03:31:43.457Z,1.40
2022-08-07T03:34:18.352Z,1.50
2022-08-07T03:36:51.840Z,1.50
2022-08-07T03:39:59.298Z,1.80
2022-08-07T03:42:10.967Z,1.67
2022-08-07T03:44:42.523Z,1.80
2022-08-07T03:47:16.129Z,1.30
2022-08-07T03:49:47.963Z,1.63
2022-08-07T03:52:26.343Z,1.60
2022-08-07T03:54:57.279Z,1.90
2022-08-07T03:58:32.978Z,1.57
2022-08-07T04:00:30.403Z,1.80
2022-08-07T04:03:04.120Z,1.47
2022-08-07T04:05:41.010Z,1.60
2022-08-07T04:08:12.819Z,1.80
2022-08-07T04:10:54.573Z,1.50
2022-08-07T04:14:10.775Z,1.70
2022-08-07T04:16:30.800Z,1.60
2022-08-07T04:19:03.639Z,1.30
2022-08-07T04:21:48.037Z,1.43
2022-08-07T04:24:33.696Z,1.50
2022-08-07T04:27:03.691Z,1.70
2022-08-07T04:29:40.349Z,1.50
2022-08-07T04:32:27.263Z,2.17
2022-08-07T04:35:03.877Z,1.50
2022-08-07T04:37:40.347Z,1.40
2022-08-07T04:40:29.664Z,1.50
2022-08-07T04:43:01.866Z,1.47
2022-08-07T04:45:57.639Z,1.63
2022-08-07T04:48:30.822Z,1.57
2022-08-07T04:51:03.516Z,1.60
2022-08-07T04:54:01.428Z,1.70
2022-08-07T04:58:10.523Z,1.50
2022-08-07T05:00:10.858Z,1.40
2022-08-07T05:02:11.342Z,1.80
2022-08-07T05:04:58.647Z,1.40
2022-08-07T05:07:36.985Z,1.57
2022-08-07T05:10:21.350Z,1.40
2022-08-07T05:12:53.763Z,1.73
2022-08-07T05:15:26.199Z,1.57
2022-08-07T05:17:57.490Z,1.77
2022-08-07T05:20:28.892Z,1.70
2022-08-07T05:23:01.334Z,1.50
2022-08-07T05:25:54.617Z,1.50
2022-08-07T05:28:23.414Z,1.73
2022-08-07T05:30:56.763Z,1.60
2022-08-07T05:33:26.036Z,1.90
2022-08-07T05:35:56.995Z,2.00
2022-08-07T05:38:58.394Z,2.20
2022-08-07T05:41:16.696Z,1.80
2022-08-07T05:44:07.655Z,1.63
2022-08-07T05:46:38.965Z,1.60
2022-08-07T05:49:11.670Z,1.70
2022-08-07T05:51:43.248Z,1.40
2022-08-07T05:54:31.289Z,1.40
2022-08-07T05:57:04.755Z,1.33
2022-08-07T05:59:46.562Z,1.50
2022-08-07T06:02:28.631Z,1.80
2022-08-07T06:04:59.553Z,1.20
2022-08-07T06:08:14.818Z,1.83
2022-08-07T06:10:18.354Z,1.93
2022-08-07T06:12:47.858Z,1.97
2022-08-07T06:15:19.659Z,2.10
2022-08-07T06:17:53.354Z,2.00
2022-08-07T06:20:31.648Z,2.20
2022-08-07T06:23:45.866Z,1.90
2022-08-07T06:25:58.649Z,2.10
2022-08-07T06:28:28.593Z,2.33
2022-08-07T06:30:58.248Z,2.10
2022-08-07T06:33:27.482Z,2.20
2022-08-07T06:36:11.915Z,2.47
2022-08-07T06:38:58.875Z,2.20
2022-08-07T06:42:02.964Z,2.00
2022-08-07T06:44:26.285Z,2.27
2022-08-07T06:47:10.357Z,2.40
2022-08-07T06:49:51.936Z,2.03
2022-08-07T06:52:31.515Z,1.97
2022-08-07T06:55:31.493Z,1.90
2022-08-07T06:57:59.179Z,1.80
2022-08-07T07:00:29.068Z,2.27
2022-08-07T07:03:01.123Z,1.90
2022-08-07T07:06:04.237Z,2.10
2022-08-07T07:08:28.745Z,1.63
2022-08-07T07:10:59.144Z,2.80
2022-08-07T07:13:56.217Z,2.20
2022-08-07T07:16:23.761Z,1.83
2022-08-07T07:18:58.943Z,1.70
2022-08-07T07:21:40.375Z,1.70
2022-08-07T07:24:18.010Z,1.60
2022-08-07T07:26:51.896Z,1.80
2022-08-07T07:29:40.634Z,1.80
2022-08-07T07:32:14.355Z,1.37
2022-08-07T07:34:45.717Z,1.30
2022-08-07T07:37:44.004Z,1.50
2022-08-07T07:40:14.644Z,1.20
2022-08-07T07:42:47.333Z,1.33
2022-08-07T07:45:22.690Z,1.57
2022-08-07T07:48:11.140Z,1.30
2022-08-07T07:50:41.198Z,0.97
2022-08-07T07:53:13.631Z,1.00
2022-08-07T07:55:54.989Z,1.20
2022-08-07T07:58:40.539Z,1.10
2022-08-07T08:02:01.775Z,1.60
2022-08-07T08:04:06.053Z,1.20
2022-08-07T08:06:50.611Z,1.07
2022-08-07T08:09:22.711Z,1.20
2022-08-07T08:12:01.883Z,1.20
2022-08-07T08:14:36.658Z,1.30
2022-08-07T08:17:56.707Z,1.23
2022-08-07T08:20:17.329Z,1.10
2022-08-07T08:23:04.057Z,1.27
2022-08-07T08:25:56.332Z,1.30
2022-08-07T08:28:38.091Z,1.10
2022-08-07T08:31:15.940Z,1.10
2022-08-07T08:33:49.385Z,1.03
2022-08-07T08:36:25.577Z,1.27
2022-08-07T08:39:02.205Z,1.03
2022-08-07T08:41:58.839Z,0.80
2022-08-07T08:44:29.459Z,1.17
2022-08-07T08:47:07.707Z,1.00
2022-08-07T08:49:46.306Z,0.90
2022-08-07T08:52:20.134Z,1.20
2022-08-07T08:54:51.298Z,0.80
2022-08-07T08:57:26.239Z,0.80
2022-08-07T09:00:03.301Z,1.00
2022-08-07T09:02:38.661Z,0.73
2022-08-07T09:05:15.060Z,1.00
2022-08-07T09:07:57.485Z,0.70
2022-08-07T09:10:29.061Z,0.77
2022-08-07T09:13:03.731Z,0.70
2022-08-07T09:16:25.297Z,0.70
2022-08-07T09:18:38.545Z,0.70
2022-08-07T09:21:57.974Z,0.90
2022-08-07T09:24:30.995Z,0.70
2022-08-07T09:26:58.151Z,0.70
2022-08-07T09:30:05.705Z,0.80
2022-08-07T09:32:33.324Z,0.87
2022-08-07T09:36:05.149Z,0.70
2022-08-07T09:38:11.844Z,0.70
2022-08-07T09:40:50.227Z,0.97
2022-08-07T09:44:03.221Z,1.07
2022-08-07T09:47:51.888Z,0.80
2022-08-07T09:50:03.968Z,0.83
2022-08-07T09:52:16.613Z,0.90
2022-08-07T09:54:57.694Z,0.90
2022-08-07T09:57:46.797Z,0.90
2022-08-07T10:00:16.305Z,1.10
2022-08-07T10:04:05.251Z,0.80
2022-08-07T10:06:24.281Z,0.70
2022-08-07T10:09:08.669Z,0.70
2022-08-07T10:12:01.203Z,0.80
2022-08-07T10:14:43.660Z,0.70
2022-08-07T10:18:00.867Z,0.67
2022-08-07T10:20:31.769Z,0.70
2022-08-07T10:23:18.524Z,0.70
2022-08-07T10:26:12.680Z,0.80
2022-08-07T10:28:53.077Z,0.80
2022-08-07T10:31:31.405Z,0.80
2022-08-07T10:34:17.943Z,0.70
2022-08-07T10:36:53.803Z,0.60
2022-08-07T10:39:41.549Z,0.80
2022-08-07T10:42:21.414Z,0.60
2022-08-07T10:45:04.392Z,0.80
2022-08-07T10:47:53.960Z,1.07
2022-08-07T10:50:25.735Z,0.80
2022-08-07T10:53:05.139Z,0.90
2022-08-07T10:55:43.449Z,0.67
2022-08-07T10:58:17.524Z,0.90
2022-08-07T11:01:00.743Z,0.80
2022-08-07T11:03:37.798Z,0.77
2022-08-07T11:06:23.190Z,0.80
2022-08-07T11:09:00.231Z,0.80
2022-08-07T11:11:35.697Z,0.87
2022-08-07T11:14:45.608Z,0.70
2022-08-07T11:17:01.770Z,0.60
2022-08-07T11:19:38.251Z,0.70
2022-08-07T11:22:18.789Z,0.60
2022-08-07T11:25:00.233Z,0.70
2022-08-07T11:28:01.137Z,0.80
2022-08-07T11:30:42.055Z,0.67
2022-08-07T11:33:59.752Z,0.60
2022-08-07T11:36:15.190Z,1.10
2022-08-07T11:38:54.464Z,0.80
2022-08-07T11:41:31.018Z,0.60
2022-08-07T11:44:19.023Z,0.67
2022-08-07T11:46:51.624Z,0.60
2022-08-07T11:49:51.579Z,1.00
2022-08-07T11:52:29.217Z,0.80
2022-08-07T11:55:19.073Z,0.60
2022-08-07T11:58:01.556Z,0.60
2022-08-07T12:00:34.667Z,0.67
2022-08-07T12:03:42.019Z,0.70
2022-08-07T12:06:39.307Z,0.60
2022-08-07T12:09:09.352Z,0.67
2022-08-07T12:12:09.100Z,0.60
2022-08-07T12:14:40.427Z,0.70
2022-08-07T12:17:20.000Z,0.80
2022-08-07T12:20:03.336Z,0.70
2022-08-07T12:22:55.936Z,0.70
2022-08-07T12:26:03.337Z,0.70
2022-08-07T12:28:44.890Z,0.60
2022-08-07T12:31:17.235Z,0.73
2022-08-07T12:34:00.735Z,0.50
2022-08-07T12:36:33.446Z,0.60
2022-08-07T12:39:42.584Z,0.50
2022-08-07T12:41:55.353Z,0.55
2022-08-07T12:44:26.154Z,0.90
2022-08-07T12:47:02.120Z,0.60
2022-08-07T12:49:44.380Z,0.80
2022-08-07T12:52:27.003Z,0.50
2022-08-07T12:55:05.334Z,0.50
2022-08-07T12:58:01.099Z,0.70
2022-08-07T13:00:32.946Z,0.60
2022-08-07T13:03:13.111Z,0.60
2022-08-07T13:06:03.283Z,0.50
2022-08-07T13:08:42.809Z,0.50
2022-08-07T13:11:20.229Z,0.57
2022-08-07T13:13:57.409Z,0.60
2022-08-07T13:16:32.934Z,0.70
2022-08-07T13:19:18.259Z,0.60
2022-08-07T13:22:03.060Z,0.60
2022-08-07T13:24:52.220Z,0.50
2022-08-07T13:27:23.318Z,0.40
2022-08-07T13:30:04.559Z,0.40
2022-08-07T13:32:38.000Z,0.38
2022-08-07T13:35:09.245Z,0.68
2022-08-07T13:37:41.704Z,0.77
2022-08-07T13:40:36.405Z,0.60
2022-08-07T13:43:11.911Z,0.93
2022-08-07T13:46:20.894Z,0.63
2022-08-07T13:48:34.597Z,0.63
2022-08-07T13:51:27.532Z,0.60
2022-08-07T13:54:01.023Z,0.55
2022-08-07T13:56:35.863Z,0.43
2022-08-07T13:59:13.100Z,0.47
2022-08-07T14:01:51.265Z,0.50
2022-08-07T14:04:29.775Z,0.60
2022-08-07T14:07:09.392Z,0.60
2022-08-07T14:10:17.753Z,0.60
2022-08-07T14:12:36.017Z,0.52
2022-08-07T14:15:18.703Z,0.60
2022-08-07T14:18:27.349Z,0.70
2022-08-07T14:20:40.754Z,0.60
2022-08-07T14:23:18.049Z,0.60
2022-08-07T14:26:07.661Z,0.70
2022-08-07T14:28:57.454Z,0.50
2022-08-07T14:31:42.909Z,0.60
2022-08-07T14:34:21.972Z,0.60
2022-08-07T14:36:56.621Z,0.75
2022-08-07T14:40:14.591Z,0.50
2022-08-07T14:42:20.832Z,0.65
2022-08-07T14:44:54.105Z,0.68
2022-08-07T14:47:32.928Z,0.80
2022-08-07T14:50:06.804Z,0.80
2022-08-07T14:52:40.516Z,0.80
2022-08-07T14:55:11.746Z,0.65
2022-08-07T14:57:58.527Z,0.60
2022-08-07T15:00:30.887Z,0.68
2022-08-07T15:03:16.394Z,0.80
2022-08-07T15:08:47.524Z,1.02
2022-08-07T15:14:12.440Z,0.77
2022-08-07T15:16:54.477Z,0.70
2022-08-07T15:22:31.079Z,0.90
2022-08-07T15:25:17.521Z,1.00
2022-08-07T15:28:32.317Z,0.95
2022-08-07T15:33:33.929Z,1.00
2022-08-07T15:36:07.527Z,0.87
2022-08-07T15:38:51.243Z,0.93
2022-08-07T15:42:44.453Z,0.80
2022-08-07T15:44:13.067Z,1.10
2022-08-07T15:46:51.926Z,1.17
2022-08-07T15:50:06.035Z,0.90
2022-08-07T15:52:21.666Z,1.00
2022-08-07T15:55:02.264Z,0.90
2022-08-07T15:57:39.892Z,1.13
2022-08-07T16:00:31.847Z,0.90
2022-08-07T16:03:08.441Z,0.90
2022-08-07T16:05:50.170Z,1.00
2022-08-07T16:08:31.235Z,0.90
2022-08-07T16:11:17.468Z,1.00
2022-08-07T16:14:07.127Z,1.00
2022-08-07T16:16:51.097Z,1.23
2022-08-07T16:19:41.739Z,1.00
2022-08-07T16:22:31.634Z,1.20
2022-08-07T16:25:23.218Z,0.97
2022-08-07T16:28:14.167Z,1.00
2022-08-07T16:30:58.472Z,1.13
2022-08-07T16:34:03.156Z,0.90
2022-08-07T16:36:20.711Z,1.08
2022-08-07T16:39:14.781Z,1.10
2022-08-07T16:41:54.392Z,0.98
2022-08-07T16:44:57.239Z,0.80
2022-08-07T16:47:51.384Z,1.00
2022-08-07T16:50:35.999Z,1.00
2022-08-07T16:54:01.357Z,1.00
2022-08-07T16:56:19.134Z,0.90
2022-08-07T16:59:10.949Z,0.90
2022-08-07T17:01:50.438Z,0.90
2022-08-07T17:04:25.229Z,0.82
2022-08-07T17:07:03.293Z,0.90
2022-08-07T17:10:08.199Z,0.85
2022-08-07T17:12:34.292Z,0.90
2022-08-07T17:15:10.719Z,0.98
2022-08-07T17:17:51.258Z,0.80
2022-08-07T17:20:29.927Z,1.00
2022-08-07T17:23:02.727Z,1.00
2022-08-07T17:25:51.816Z,1.25
2022-08-07T17:28:31.045Z,1.00
2022-08-07T17:31:16.020Z,1.10
2022-08-07T17:34:17.969Z,0.90
2022-08-07T17:36:57.484Z,0.82
2022-08-07T17:39:58.206Z,0.80
2022-08-07T17:42:23.346Z,0.70
2022-08-07T17:44:57.273Z,0.77
2022-08-07T17:47:38.114Z,0.85
2022-08-07T17:50:16.717Z,0.70
2022-08-07T17:52:51.092Z,0.77
2022-08-07T17:56:01.026Z,0.77
2022-08-07T17:58:30.043Z,0.90
2022-08-07T18:01:01.384Z,0.80
2022-08-07T18:04:04.356Z,0.68
2022-08-07T18:06:38.646Z,0.77
2022-08-07T18:09:08.974Z,0.90
2022-08-07T18:12:16.638Z,1.37
2022-08-07T18:14:46.072Z,1.30
2022-08-07T18:18:45.046Z,1.00
2022-08-07T18:21:10.476Z,1.30
2022-08-07T18:23:06.905Z,1.20
2022-08-07T18:26:01.314Z,1.07
2022-08-07T18:28:58.126Z,0.90
2022-08-07T18:31:40.451Z,0.80
2022-08-07T18:34:37.017Z,1.10
2022-08-07T18:37:13.267Z,1.20
2022-08-07T18:40:07.974Z,0.80
2022-08-07T18:42:46.343Z,1.00
2022-08-07T18:45:42.929Z,1.03
2022-08-07T18:50:05.797Z,1.20
2022-08-07T18:51:09.791Z,0.90
2022-08-07T18:54:02.746Z,1.10
2022-08-07T18:56:35.229Z,0.90
2022-08-07T18:59:47.135Z,1.10
2022-08-07T19:02:18.957Z,1.00
2022-08-07T19:05:15.093Z,0.97
2022-08-07T19:07:51.888Z,1.13
2022-08-07T19:10:31.293Z,1.07
2022-08-07T19:13:10.349Z,1.10
2022-08-07T19:16:02.956Z,1.20
2022-08-07T19:18:37.597Z,0.93
2022-08-07T19:21:47.952Z,1.20
2022-08-07T19:24:08.354Z,1.20
2022-08-07T19:27:16.750Z,1.10
2022-08-07T19:31:03.996Z,1.00
2022-08-07T19:32:27.170Z,1.10
2022-08-07T19:35:02.698Z,1.20
2022-08-07T19:37:56.475Z,1.10
2022-08-07T19:40:31.623Z,1.23
2022-08-07T19:43:10.843Z,1.00
2022-08-07T19:46:09.844Z,1.00
2022-08-07T19:48:42.672Z,1.00
2022-08-07T19:51:20.509Z,1.10
2022-08-07T19:54:31.811Z,0.90
2022-08-07T19:58:03.553Z,1.10
2022-08-07T19:59:47.488Z,1.27
2022-08-07T20:02:19.457Z,0.80
2022-08-07T20:04:52.039Z,0.93
2022-08-07T20:07:45.943Z,0.90
2022-08-07T20:10:37.042Z,0.90
2022-08-07T20:13:08.336Z,1.07
2022-08-07T20:15:55.215Z,0.90
2022-08-07T20:18:32.794Z,0.90
2022-08-07T20:21:03.833Z,0.90
2022-08-07T20:23:49.544Z,1.00
2022-08-07T20:26:29.669Z,1.20
2022-08-07T20:29:10.387Z,0.80
2022-08-07T20:31:47.355Z,1.10
2022-08-07T20:34:34.469Z,0.93
2022-08-07T20:37:09.982Z,1.30
2022-08-07T20:40:03.265Z,1.30
2022-08-07T20:42:30.012Z,1.13
2022-08-07T20:45:01.161Z,1.23
2022-08-07T20:47:56.911Z,1.00
2022-08-07T20:50:22.611Z,1.10
2022-08-07T20:52:52.782Z,1.23
2022-08-07T20:55:23.935Z,1.23
2022-08-07T20:58:03.330Z,1.40
2022-08-07T21:00:33.652Z,1.07
2022-08-07T21:03:03.772Z,1.27
2022-08-07T21:05:54.656Z,1.23
2022-08-07T21:08:36.854Z,1.40
2022-08-07T21:11:10.681Z,1.43
2022-08-07T21:13:57.474Z,1.37
2022-08-07T21:16:32.982Z,1.30
2022-08-07T21:19:04.010Z,1.17
2022-08-07T21:21:57.121Z,1.20
2022-08-07T21:24:31.519Z,1.10
2022-08-07T21:27:02.555Z,1.43
2022-08-07T21:29:41.315Z,1.20
2022-08-07T21:32:46.660Z,1.13
2022-08-07T21:35:16.621Z,1.27
2022-08-07T21:38:05.793Z,1.33
2022-08-07T21:40:42.394Z,1.53
2022-08-07T21:43:12.452Z,1.40
2022-08-07T21:46:07.895Z,1.30
2022-08-07T21:48:42.460Z,1.37
2022-08-07T21:51:24.947Z,1.37
2022-08-07T21:53:55.136Z,1.83
2022-08-07T21:56:37.772Z,1.37
2022-08-07T21:59:11.359Z,1.70
2022-08-07T22:02:07.138Z,1.53
2022-08-07T22:04:37.447Z,1.50
2022-08-07T22:07:10.785Z,1.10
2022-08-07T22:09:54.206Z,1.40
2022-08-07T22:12:27.373Z,1.40
2022-08-07T22:15:04.093Z,1.53
2022-08-07T22:17:55.992Z,1.50
2022-08-07T22:20:29.321Z,1.20
2022-08-07T22:23:03.315Z,1.13
2022-08-07T22:25:36.852Z,1.30
2022-08-07T22:28:31.374Z,1.27
2022-08-07T22:30:58.737Z,1.10
2022-08-07T22:33:52.733Z,1.30
2022-08-07T22:36:28.303Z,1.60
2022-08-07T22:38:59.516Z,1.50
2022-08-07T22:42:03.463Z,1.60
2022-08-07T22:44:20.589Z,1.37
2022-08-07T22:47:08.826Z,1.30
2022-08-07T22:49:54.328Z,1.50
2022-08-07T22:52:43.224Z,1.50
2022-08-07T22:55:29.731Z,1.37
2022-08-07T22:58:16.702Z,1.40
2022-08-07T23:00:54.977Z,1.27
2022-08-07T23:03:57.658Z,1.20
2022-08-07T23:06:36.277Z,2.00
2022-08-07T23:10:04.562Z,1.30
2022-08-07T23:12:32.653Z,1.70
2022-08-07T23:15:09.231Z,1.30
2022-08-07T23:17:54.537Z,1.40
2022-08-07T23:20:52.986Z,1.50
2022-08-07T23:24:05.608Z,1.40
2022-08-07T23:26:26.060Z,1.47
2022-08-07T23:29:42.814Z,1.50
2022-08-07T23:34:19.606Z,1.40
2022-08-07T23:35:09.163Z,1.60
2022-08-07T23:38:01.570Z,1.50
2022-08-07T23:40:36.232Z,1.80
2022-08-07T23:43:18.757Z,1.60
2022-08-07T23:46:02.900Z,1.73
2022-08-07T23:48:41.986Z,1.53
2022-08-07T23:53:06.124Z,1.60
2022-08-07T23:54:08.377Z,1.83
2022-08-07T23:56:54.687Z,1.47
